Matam, Senegal
Current Conditions -  °F | °C
As of 11:00 AM on Saturday 25 Oct 2014 (Local Time) from GOSM Reporting Station
Clear Clear  
Wind Chill: 93°   Ceiling: Unl
Heat Index: 101°   Visibility: 6mi
Dew Point: 72°   Wind: 5mph
Humidity: 49%   Direction: 240°WSW
Pressure: 29.88"   Gusts: NA
Location:  15.66°N, 13.26°W
Report Text: GOSM 251100Z 24004KT CAVOK 34/22 Q1012
Loading
Personal Weather Stations






























Interactive Weather Map
Tropical Storm Tracking
New forecast layout! Learn more

10-Day Weather Forecast

Advertisements
Track Severe Weather on mobile